Time;durP1;ratioP1;P1;durP2;ratioP2;P2;SDS_P1;SDS_P2;PMS_P1;PMS_P2;Temp;Humidity;BMP_temperature;BMP_pressure;BME280_temperature;BME280_humidity;BME280_pressure;Samples;Min_cycle;Max_cycle;Signal;HPM_P1;HPM_P2
2023/12/28 00:01:55;;;;;;;29.70;4.43;;;9.90;99.90;;;;;;5146955;27;20057;-47
2023/12/28 00:04:21;;;;;;;37.70;5.63;;;9.90;99.90;;;;;;5146938;28;20019;-47
2023/12/28 00:06:47;;;;;;;28.50;4.97;;;9.90;99.90;;;;;;5146448;28;20174;-51
2023/12/28 00:09:12;;;;;;;32.45;5.80;;;10.00;99.90;;;;;;5146605;28;20050;-50
2023/12/28 00:11:38;;;;;;;35.55;5.53;;;10.00;99.90;;;;;;5146623;28;20051;-47
2023/12/28 00:14:04;;;;;;;30.17;5.38;;;10.00;99.90;;;;;;5146598;28;20221;-50
2023/12/28 00:16:32;;;;;;;35.90;4.70;;;10.00;99.90;;;;;;5146741;28;20057;-47
2023/12/28 00:18:58;;;;;;;55.47;7.45;;;10.10;99.90;;;;;;5146277;28;20023;-47
2023/12/28 00:21:24;;;;;;;27.02;5.35;;;10.20;99.90;;;;;;5146493;28;20031;-50
2023/12/28 00:23:49;;;;;;;35.25;6.90;;;10.20;99.90;;;;;;5145645;28;20330;-50
2023/12/28 00:26:21;;;;;;;27.73;5.28;;;10.40;99.90;;;;;;5149998;27;20023;-48
2023/12/28 00:28:47;;;;;;;29.45;5.50;;;10.40;99.90;;;;;;5150970;27;20277;-48
2023/12/28 00:31:12;;;;;;;32.13;5.38;;;10.40;99.90;;;;;;5150757;27;20035;-48
2023/12/28 00:33:38;;;;;;;38.38;7.40;;;10.40;99.90;;;;;;5149960;27;20037;-47
2023/12/28 00:36:04;;;;;;;32.80;4.75;;;10.50;99.90;;;;;;5150739;27;20026;-47
2023/12/28 00:38:30;;;;;;;36.88;5.57;;;10.50;99.90;;;;;;5150184;27;20039;-48
2023/12/28 00:40:55;;;;;;;28.88;6.90;;;10.40;99.90;;;;;;5151002;27;20031;-48
2023/12/28 00:43:21;;;;;;;29.02;5.72;;;10.50;99.90;;;;;;5132550;27;20031;-48
2023/12/28 00:45:46;;;;;;;42.35;7.03;;;10.40;99.90;;;;;;5150467;27;20115;-48
2023/12/28 00:48:12;;;;;;;45.72;6.32;;;10.40;99.90;;;;;;5150497;27;20015;-49
2023/12/28 00:50:38;;;;;;;31.30;5.97;;;10.40;99.90;;;;;;5150512;27;20019;-48
2023/12/28 00:53:04;;;;;;;39.45;7.30;;;10.40;99.90;;;;;;5150335;27;20031;-48
2023/12/28 00:55:29;;;;;;;43.42;6.60;;;10.50;99.90;;;;;;5150494;27;20027;-48
2023/12/28 00:57:55;;;;;;;31.40;6.32;;;10.50;99.90;;;;;;5149238;27;20031;-48
2023/12/28 01:00:21;;;;;;;33.25;5.57;;;10.50;99.90;;;;;;5150318;27;20042;-47
2023/12/28 01:02:46;;;;;;;31.67;5.07;;;10.50;99.90;;;;;;5150270;27;20023;-48
2023/12/28 01:05:13;;;;;;;38.30;5.15;;;10.50;99.90;;;;;;5150151;27;20272;-50
2023/12/28 01:07:39;;;;;;;19.98;4.25;;;10.40;99.90;;;;;;5149914;27;20039;-51
2023/12/28 01:10:05;;;;;;;23.25;4.20;;;10.40;99.90;;;;;;5150028;27;20123;-50
2023/12/28 01:12:30;;;;;;;20.23;3.42;;;10.20;99.90;;;;;;5150079;27;20048;-50
2023/12/28 01:14:56;;;;;;;19.85;3.28;;;10.10;99.90;;;;;;5149917;27;20031;-50
2023/12/28 01:17:22;;;;;;;20.02;3.63;;;10.10;99.90;;;;;;5149909;27;20023;-50
2023/12/28 01:19:47;;;;;;;19.10;3.25;;;10.20;99.90;;;;;;5149811;27;20055;-50
2023/12/28 01:22:13;;;;;;;17.75;3.53;;;10.20;99.90;;;;;;5148803;27;20304;-48
2023/12/28 01:24:39;;;;;;;24.52;4.18;;;10.10;99.90;;;;;;5149821;27;20019;-48
2023/12/28 01:27:04;;;;;;;19.23;3.38;;;10.10;99.90;;;;;;5148582;27;20039;-49
2023/12/28 01:29:30;;;;;;;21.15;4.15;;;10.20;99.90;;;;;;5148772;27;20095;-49
2023/12/28 01:31:56;;;;;;;16.63;2.95;;;10.20;99.90;;;;;;5149660;27;20067;-49
2023/12/28 01:34:22;;;;;;;16.52;3.13;;;10.10;99.90;;;;;;5148743;27;20232;-49
2023/12/28 01:36:47;;;;;;;17.05;2.58;;;10.10;99.90;;;;;;5148544;27;20039;-49
2023/12/28 01:39:15;;;;;;;22.42;3.15;;;10.10;99.90;;;;;;5149687;27;20027;-47
2023/12/28 01:41:41;;;;;;;14.70;2.22;;;10.00;99.90;;;;;;5131295;27;20027;-48
2023/12/28 01:44:06;;;;;;;18.95;2.83;;;10.00;99.90;;;;;;5149514;27;20038;-47
2023/12/28 01:46:32;;;;;;;11.93;2.45;;;10.00;99.90;;;;;;5149322;27;20027;-49
2023/12/28 01:48:59;;;;;;;10.32;2.40;;;10.00;99.90;;;;;;5114005;27;20023;-47
2023/12/28 01:51:24;;;;;;;15.32;3.08;;;10.00;99.90;;;;;;5131670;27;20098;-47
2023/12/28 01:53:50;;;;;;;20.48;3.55;;;10.00;99.90;;;;;;5149160;27;20041;-48
2023/12/28 01:56:16;;;;;;;25.95;3.90;;;10.00;99.90;;;;;;5149236;27;20034;-49
2023/12/28 01:58:42;;;;;;;16.08;3.28;;;9.90;99.90;;;;;;5147940;27;20039;-51
2023/12/28 02:01:07;;;;;;;19.27;2.95;;;9.90;99.90;;;;;;5148116;27;20030;-48
2023/12/28 02:03:33;;;;;;;18.40;2.13;;;9.80;99.90;;;;;;5147991;27;20192;-49
2023/12/28 02:05:59;;;;;;;18.63;2.67;;;9.80;99.90;;;;;;5147983;27;20054;-51
2023/12/28 02:08:25;;;;;;;7.88;1.80;;;9.80;99.90;;;;;;5148630;27;20034;-50
2023/12/28 02:10:51;;;;;;;13.63;2.22;;;9.80;99.90;;;;;;5148825;27;20027;-50
2023/12/28 02:13:16;;;;;;;9.82;2.35;;;9.80;99.90;;;;;;5148384;27;20031;-49
2023/12/28 02:15:43;;;;;;;14.25;2.67;;;9.80;99.90;;;;;;5148666;27;20023;-50
2023/12/28 02:18:15;;;;;;;13.68;2.42;;;9.80;99.90;;;;;;5130787;27;20027;-51
2023/12/28 02:20:41;;;;;;;8.63;2.15;;;9.80;99.90;;;;;;5131352;27;20035;-49
2023/12/28 02:23:06;;;;;;;10.95;2.47;;;9.80;99.90;;;;;;5148416;27;20071;-51
2023/12/28 02:25:32;;;;;;;13.90;2.47;;;9.90;99.90;;;;;;5148604;27;20181;-51
2023/12/28 02:27:58;;;;;;;12.02;2.45;;;9.90;99.90;;;;;;5148464;27;20042;-51
2023/12/28 02:30:24;;;;;;;8.20;1.65;;;9.80;99.90;;;;;;5148587;27;20280;-49
2023/12/28 02:33:11;;;;;;;11.55;2.10;;;9.80;99.90;;;;;;5130523;27;20019;-49
2023/12/28 02:35:43;;;;;;;13.98;2.58;;;9.80;99.90;;;;;;5148315;27;20128;-49
2023/12/28 02:38:13;;;;;;;9.48;2.22;;;9.80;99.90;;;;;;5130464;27;20038;-47
2023/12/28 02:40:39;;;;;;;;;;;9.80;99.90;;;;;;5148790;27;20035;-49
2023/12/28 02:43:08;;;;;;;16.48;2.60;;;9.80;99.90;;;;;;5148047;27;19907;-51
2023/12/28 02:45:34;;;;;;;11.27;2.35;;;9.80;99.90;;;;;;5148224;27;20030;-51
2023/12/28 02:48:00;;;;;;;14.30;2.20;;;9.80;99.90;;;;;;5147461;27;20083;-50
2023/12/28 02:50:25;;;;;;;11.75;2.10;;;9.80;99.90;;;;;;5147774;27;20023;-50
2023/12/28 02:52:51;;;;;;;9.90;1.83;;;9.80;99.90;;;;;;5146822;27;20030;-50
2023/12/28 02:55:17;;;;;;;12.90;2.17;;;9.90;99.90;;;;;;5148009;27;20094;-49
2023/12/28 02:57:44;;;;;;;13.70;2.78;;;9.90;99.90;;;;;;5146930;27;20027;-50
2023/12/28 03:00:10;;;;;;;12.32;2.30;;;9.90;99.90;;;;;;5148039;27;20189;-50
2023/12/28 03:02:37;;;;;;;15.82;3.30;;;9.90;99.90;;;;;;5146850;27;20280;-50
2023/12/28 03:05:05;;;;;;;10.75;1.98;;;9.90;99.90;;;;;;5147752;27;20061;-50
2023/12/28 03:07:32;;;;;;;15.50;2.72;;;9.80;99.90;;;;;;5147543;27;20059;-51
2023/12/28 03:10:04;;;;;;;14.38;1.95;;;9.80;99.90;;;;;;5083708;28;20418;-51
2023/12/28 03:12:30;;;;;;;15.15;2.80;;;9.80;99.90;;;;;;5083006;28;20045;-49
2023/12/28 03:14:56;;;;;;;19.80;2.80;;;9.80;99.90;;;;;;5082988;28;20211;-48
2023/12/28 03:17:22;;;;;;;11.35;2.08;;;9.80;99.90;;;;;;5082901;28;20051;-50
2023/12/28 03:19:47;;;;;;;10.27;2.20;;;9.80;99.90;;;;;;5081730;28;20060;-48
2023/12/28 03:22:13;;;;;;;14.38;2.45;;;9.70;99.90;;;;;;5082789;28;20190;-50
2023/12/28 03:24:39;;;;;;;13.60;2.53;;;9.70;99.90;;;;;;5081745;28;20079;-50
2023/12/28 03:27:05;;;;;;;13.20;2.42;;;9.70;99.90;;;;;;5082700;28;20028;-48
2023/12/28 03:29:31;;;;;;;13.35;2.30;;;9.70;99.90;;;;;;5082399;28;20037;-50
2023/12/28 03:31:57;;;;;;;7.55;1.70;;;9.70;99.90;;;;;;5082547;28;20028;-48
2023/12/28 03:34:23;;;;;;;21.10;2.75;;;9.80;99.90;;;;;;5082588;28;20051;-49
2023/12/28 03:36:49;;;;;;;19.45;2.95;;;9.80;99.90;;;;;;5082606;28;20337;-47
2023/12/28 03:39:15;;;;;;;14.70;2.08;;;9.80;99.90;;;;;;5082272;28;20056;-49
2023/12/28 03:41:40;;;;;;;17.00;2.45;;;9.80;99.90;;;;;;5082427;28;20029;-48
2023/12/28 03:44:06;;;;;;;6.57;1.63;;;9.80;99.90;;;;;;5082341;28;20052;-47
2023/12/28 03:46:32;;;;;;;10.82;2.00;;;9.80;99.90;;;;;;5082480;28;20342;-47
2023/12/28 03:48:58;;;;;;;15.60;2.95;;;9.80;99.90;;;;;;5081823;28;20033;-48
2023/12/28 03:51:23;;;;;;;14.60;2.78;;;9.80;99.90;;;;;;5082235;28;20032;-48
2023/12/28 03:53:49;;;;;;;10.73;2.05;;;9.90;99.90;;;;;;5081967;28;20025;-50
2023/12/28 03:56:27;;;;;;;16.42;2.33;;;9.80;99.90;;;;;;5082185;28;20057;-47
2023/12/28 03:58:53;;;;;;;13.77;2.42;;;9.80;99.90;;;;;;5082153;28;20037;-50
2023/12/28 04:01:20;;;;;;;16.75;3.25;;;9.80;99.90;;;;;;5081776;28;20067;-49
2023/12/28 04:03:46;;;;;;;16.02;2.40;;;9.80;99.90;;;;;;5080757;28;20024;-50
2023/12/28 04:06:12;;;;;;;15.60;3.17;;;9.70;99.90;;;;;;5081853;28;20082;-49
2023/12/28 04:08:38;;;;;;;14.27;2.15;;;9.80;99.90;;;;;;5081391;28;20052;-50
2023/12/28 04:11:04;;;;;;;19.17;4.22;;;9.80;99.90;;;;;;5081780;28;20028;-51
2023/12/28 04:13:30;;;;;;;16.10;2.95;;;9.90;99.90;;;;;;5081923;28;20159;-51
2023/12/28 04:15:55;;;;;;;16.98;2.58;;;9.90;99.90;;;;;;5081597;28;20025;-50
2023/12/28 04:18:21;;;;;;;12.70;2.03;;;9.80;99.90;;;;;;5081239;28;20104;-49
2023/12/28 04:20:47;;;;;;;18.85;2.83;;;9.80;99.90;;;;;;5071537;28;20060;-50
2023/12/28 04:23:13;;;;;;;14.95;2.83;;;9.90;99.90;;;;;;5067715;28;20029;-48
2023/12/28 04:25:39;;;;;;;13.50;2.42;;;9.90;99.90;;;;;;5068124;28;20217;-48
2023/12/28 04:28:05;;;;;;;14.88;2.80;;;9.90;99.90;;;;;;5068249;28;20044;-47
2023/12/28 04:30:31;;;;;;;9.48;2.40;;;9.90;99.90;;;;;;5068317;28;20029;-47
2023/12/28 04:32:57;;;;;;;18.10;2.22;;;9.90;99.90;;;;;;5068239;28;20052;-47
2023/12/28 04:35:22;;;;;;;12.18;2.40;;;9.90;99.90;;;;;;5067036;28;20029;-47
2023/12/28 04:37:48;;;;;;;12.07;2.85;;;9.90;99.90;;;;;;5067979;28;20029;-48
2023/12/28 04:40:17;;;;;;;12.02;2.35;;;9.90;99.90;;;;;;5067023;28;20033;-49
2023/12/28 04:42:43;;;;;;;17.10;2.72;;;9.90;99.90;;;;;;5067999;28;20020;-48
2023/12/28 04:45:10;;;;;;;12.05;2.28;;;9.90;99.90;;;;;;5067871;28;20104;-49
2023/12/28 04:47:36;;;;;;;8.95;2.17;;;9.90;99.90;;;;;;5067696;28;20033;-49
2023/12/28 04:50:03;;;;;;;8.68;2.10;;;9.90;99.90;;;;;;5067392;28;20062;-47
2023/12/28 04:52:28;;;;;;;12.20;2.00;;;9.90;99.90;;;;;;5067877;28;20033;-47
2023/12/28 04:54:54;;;;;;;11.02;1.65;;;10.00;99.90;;;;;;5067853;28;20053;-48
2023/12/28 04:57:20;;;;;;;10.85;1.92;;;9.90;99.90;;;;;;5067592;28;20021;-48
2023/12/28 04:59:46;;;;;;;7.70;1.65;;;9.90;99.90;;;;;;5067194;28;20040;-47
2023/12/28 05:02:11;;;;;;;8.68;1.55;;;9.90;99.90;;;;;;5066853;28;20040;-47
2023/12/28 05:04:40;;;;;;;10.55;1.48;;;10.00;99.90;;;;;;5067845;28;20078;-48
2023/12/28 05:07:06;;;;;;;8.75;2.40;;;9.90;99.90;;;;;;5067625;28;20055;-48
2023/12/28 05:09:31;;;;;;;15.10;2.50;;;9.90;99.90;;;;;;5066235;28;20049;-48
2023/12/28 05:11:57;;;;;;;11.93;2.35;;;10.00;99.90;;;;;;5067762;28;20044;-47
2023/12/28 05:14:23;;;;;;;16.65;2.45;;;10.00;99.90;;;;;;5067562;28;20148;-48
2023/12/28 05:16:48;;;;;;;14.93;2.35;;;9.90;99.90;;;;;;5067448;28;20071;-47
2023/12/28 05:19:14;;;;;;;12.90;1.70;;;9.90;99.90;;;;;;5067773;28;20024;-48
2023/12/28 05:21:40;;;;;;;16.90;2.38;;;10.00;99.90;;;;;;5067380;28;20340;-49
2023/12/28 05:24:05;;;;;;;14.80;3.42;;;10.00;99.90;;;;;;5067265;28;20037;-48
2023/12/28 05:26:31;;;;;;;20.50;3.05;;;10.00;99.90;;;;;;5067786;28;20091;-48
2023/12/28 05:28:57;;;;;;;23.30;3.83;;;9.90;99.90;;;;;;5066206;28;20029;-48
2023/12/28 05:31:22;;;;;;;19.65;3.33;;;9.90;99.90;;;;;;5065264;28;20028;-47
2023/12/28 05:33:48;;;;;;;20.60;3.55;;;10.00;99.90;;;;;;5065753;28;20079;-47
2023/12/28 05:36:14;;;;;;;22.33;2.83;;;9.90;99.90;;;;;;5067098;28;20040;-48
2023/12/28 05:38:39;;;;;;;13.90;3.15;;;9.90;99.90;;;;;;5066438;28;20029;-47
2023/12/28 05:41:05;;;;;;;16.52;3.83;;;9.90;99.90;;;;;;5066025;28;20082;-47
2023/12/28 05:43:31;;;;;;;15.05;2.80;;;9.90;99.90;;;;;;5066712;28;20267;-48
2023/12/28 05:45:56;;;;;;;20.45;3.42;;;9.90;99.90;;;;;;5066808;28;20198;-48
2023/12/28 05:48:22;;;;;;;22.48;4.30;;;9.90;99.90;;;;;;5066712;28;20040;-48
2023/12/28 05:50:48;;;;;;;15.82;3.03;;;9.90;99.90;;;;;;5065727;28;20020;-48
2023/12/28 05:53:14;;;;;;;28.40;3.65;;;9.90;99.90;;;;;;5066469;28;20053;-50
2023/12/28 05:55:43;;;;;;;21.42;3.63;;;9.80;99.90;;;;;;5066481;28;20221;-50
2023/12/28 05:58:09;;;;;;;28.55;4.28;;;9.80;99.90;;;;;;5065572;28;20028;-51
2023/12/28 06:00:36;;;;;;;19.05;3.90;;;9.80;99.90;;;;;;5066528;28;20028;-48
2023/12/28 06:03:02;;;;;;;28.80;4.57;;;9.80;99.90;;;;;;5065970;28;20159;-50
2023/12/28 06:05:28;;;;;;;19.35;3.40;;;9.80;99.90;;;;;;5066436;28;20153;-51
2023/12/28 06:07:54;;;;;;;22.45;3.70;;;9.80;99.90;;;;;;5065938;28;20263;-51
2023/12/28 06:10:20;;;;;;;15.20;2.92;;;9.80;99.90;;;;;;5065140;28;20314;-49
2023/12/28 06:12:45;;;;;;;24.23;3.45;;;9.80;99.90;;;;;;5065920;28;20075;-49
2023/12/28 06:15:11;;;;;;;18.52;3.55;;;9.80;99.90;;;;;;5066201;28;20051;-50
2023/12/28 06:17:37;;;;;;;24.25;4.50;;;9.90;99.90;;;;;;5066187;28;20028;-50
2023/12/28 06:20:03;;;;;;;26.88;4.75;;;9.90;99.90;;;;;;5066254;28;20302;-50
2023/12/28 06:22:29;;;;;;;27.33;5.18;;;9.90;99.90;;;;;;5065090;28;20046;-49
2023/12/28 06:24:55;;;;;;;21.02;4.05;;;10.00;99.90;;;;;;5066182;28;20021;-49
2023/12/28 06:27:21;;;;;;;31.13;5.78;;;10.00;99.90;;;;;;5066050;28;20294;-49
2023/12/28 06:29:47;;;;;;;24.80;4.95;;;10.00;99.90;;;;;;5064777;28;20052;-50
2023/12/28 06:32:12;;;;;;;25.90;4.70;;;10.00;99.90;;;;;;5064956;28;20023;-51
2023/12/28 06:34:39;;;;;;;22.83;4.57;;;10.10;99.90;;;;;;5066072;28;20029;-50
2023/12/28 06:37:04;;;;;;;25.55;4.78;;;10.10;99.90;;;;;;5065565;28;20033;-50
2023/12/28 06:39:30;;;;;;;19.98;3.38;;;10.10;99.90;;;;;;5065707;28;20029;-51
2023/12/28 06:41:56;;;;;;;18.10;4.15;;;10.20;99.90;;;;;;5065879;28;20075;-51
2023/12/28 06:44:21;;;;;;;27.00;5.80;;;10.20;99.90;;;;;;5047805;28;20028;-48
2023/12/28 06:46:47;;;;;;;32.72;4.35;;;10.20;99.90;;;;;;5064618;28;20032;-51
2023/12/28 06:49:13;;;;;;;23.90;3.42;;;10.20;99.90;;;;;;5065619;28;20029;-49
2023/12/28 06:51:38;;;;;;;21.35;3.42;;;10.20;99.90;;;;;;5065552;28;20044;-48
2023/12/28 06:54:04;;;;;;;20.70;4.03;;;10.20;99.90;;;;;;5065706;28;20031;-47
2023/12/28 06:56:29;;;;;;;20.05;5.03;;;10.20;99.90;;;;;;5065317;28;20377;-48
2023/12/28 06:58:55;;;;;;;20.67;3.90;;;10.20;99.90;;;;;;5065687;28;20041;-49
2023/12/28 07:01:21;;;;;;;18.77;2.75;;;10.20;99.90;;;;;;5065666;28;20036;-48
2023/12/28 07:03:46;;;;;;;21.23;3.22;;;10.20;99.90;;;;;;5065624;28;20032;-48
2023/12/28 07:06:13;;;;;;;15.85;2.60;;;10.10;99.90;;;;;;5064491;28;20033;-48
2023/12/28 07:08:39;;;;;;;16.08;3.00;;;10.10;99.90;;;;;;5065024;28;20052;-47
2023/12/28 07:11:05;;;;;;;16.25;3.53;;;10.10;99.90;;;;;;5064643;28;20033;-50
2023/12/28 07:13:30;;;;;;;14.63;2.58;;;10.10;99.90;;;;;;5047701;28;20100;-48
2023/12/28 07:15:56;;;;;;;25.83;3.95;;;10.20;99.90;;;;;;5065440;28;20028;-50
2023/12/28 07:18:22;;;;;;;14.30;2.60;;;10.20;99.90;;;;;;5064397;28;20040;-50
2023/12/28 07:20:48;;;;;;;15.68;2.83;;;10.20;99.90;;;;;;5065426;28;20052;-48
2023/12/28 07:23:14;;;;;;;11.90;2.63;;;10.10;99.90;;;;;;5065719;28;20086;-47
2023/12/28 07:25:40;;;;;;;14.07;2.58;;;10.10;99.90;;;;;;5065205;28;20100;-49
2023/12/28 07:28:05;;;;;;;19.20;2.88;;;10.00;99.90;;;;;;5064804;28;20037;-48
2023/12/28 07:30:31;;;;;;;24.10;3.10;;;10.00;99.90;;;;;;5064340;28;20025;-50
2023/12/28 07:32:57;;;;;;;15.90;2.38;;;10.00;99.90;;;;;;5064314;28;20036;-49
2023/12/28 07:35:23;;;;;;;17.75;2.72;;;9.90;99.90;;;;;;5065138;28;20287;-50
2023/12/28 07:37:49;;;;;;;11.27;2.85;;;9.90;99.90;;;;;;5065102;28;20222;-49
2023/12/28 07:40:15;;;;;;;14.65;3.58;;;9.90;99.90;;;;;;5065266;28;20255;-48
2023/12/28 07:42:41;;;;;;;19.77;3.17;;;9.90;99.90;;;;;;5065115;28;20047;-50
2023/12/28 07:45:06;;;;;;;10.55;2.45;;;9.90;99.90;;;;;;5064615;28;20045;-49
2023/12/28 07:47:33;;;;;;;8.57;2.08;;;10.00;99.90;;;;;;5064016;28;20096;-49
2023/12/28 07:49:59;;;;;;;15.38;2.67;;;10.00;99.90;;;;;;5065051;28;20037;-50
2023/12/28 07:52:24;;;;;;;12.40;2.50;;;10.00;99.90;;;;;;5065134;28;20285;-48
2023/12/28 07:54:50;;;;;;;13.35;2.40;;;10.00;99.90;;;;;;5065586;28;20028;-49
2023/12/28 07:57:16;;;;;;;14.35;2.38;;;10.00;99.90;;;;;;5068682;28;20091;-50
2023/12/28 07:59:41;;;;;;;20.33;3.13;;;10.00;99.90;;;;;;5067561;28;20195;-47
2023/12/28 08:02:08;;;;;;;18.33;2.78;;;10.00;99.90;;;;;;5068888;28;20033;-48
2023/12/28 08:04:34;;;;;;;11.05;2.08;;;10.00;99.90;;;;;;5068283;28;20033;-48
2023/12/28 08:06:59;;;;;;;16.83;3.08;;;10.00;99.90;;;;;;5068537;28;20274;-47
2023/12/28 08:09:25;;;;;;;10.00;2.40;;;10.00;99.90;;;;;;5068147;28;20104;-49
2023/12/28 08:11:50;;;;;;;13.63;3.10;;;10.00;99.90;;;;;;5068237;28;20025;-49
2023/12/28 08:14:16;;;;;;;20.40;2.65;;;10.10;99.90;;;;;;5068533;28;20246;-48
2023/12/28 08:16:42;;;;;;;19.25;3.35;;;10.10;99.90;;;;;;5068451;28;20036;-51
2023/12/28 08:19:07;;;;;;;26.92;4.20;;;10.10;99.90;;;;;;5067515;28;20092;-47
2023/12/28 08:21:33;;;;;;;24.30;3.83;;;10.20;99.90;;;;;;5068220;28;20040;-49
2023/12/28 08:23:59;;;;;;;23.10;2.95;;;10.20;99.90;;;;;;5068183;28;20275;-50
2023/12/28 08:26:24;;;;;;;18.60;3.60;;;10.20;99.90;;;;;;5068289;28;20209;-47
2023/12/28 08:28:50;;;;;;;21.52;4.07;;;10.30;99.90;;;;;;5068185;28;20291;-48
2023/12/28 08:31:16;;;;;;;30.00;3.63;;;10.30;99.90;;;;;;5066921;28;20033;-49
2023/12/28 08:33:41;;;;;;;31.35;4.90;;;10.40;99.90;;;;;;5067219;28;20020;-50
2023/12/28 08:36:08;;;;;;;22.85;4.10;;;10.40;99.90;;;;;;5067138;28;20146;-47
2023/12/28 08:38:33;;;;;;;36.65;5.20;;;10.40;99.90;;;;;;5066961;28;20297;-49
2023/12/28 08:40:59;;;;;;;31.80;4.47;;;10.50;99.90;;;;;;5067840;28;20039;-50
2023/12/28 08:43:25;;;;;;;22.13;3.85;;;10.40;99.90;;;;;;5068092;28;20037;-51
2023/12/28 08:45:50;;;;;;;25.13;3.85;;;10.50;99.90;;;;;;5066856;28;20086;-49
2023/12/28 08:48:16;;;;;;;29.23;4.65;;;10.40;99.90;;;;;;5066546;28;20298;-49
2023/12/28 08:50:42;;;;;;;19.65;3.80;;;10.40;99.90;;;;;;5066697;28;20287;-50
2023/12/28 08:53:07;;;;;;;26.88;5.05;;;10.40;99.90;;;;;;5067652;28;20056;-50
2023/12/28 08:55:35;;;;;;;33.88;4.45;;;10.40;99.90;;;;;;5067611;28;20244;-50
2023/12/28 08:58:01;;;;;;;37.50;4.57;;;10.40;99.90;;;;;;5067536;28;20127;-50
2023/12/28 09:00:28;;;;;;;33.88;5.63;;;10.40;99.90;;;;;;5067692;28;20029;-49
2023/12/28 09:02:53;;;;;;;24.60;3.78;;;10.50;99.90;;;;;;5066555;28;20051;-49
2023/12/28 09:05:19;;;;;;;20.85;3.80;;;10.40;99.90;;;;;;5067290;28;20024;-48
2023/12/28 09:07:44;;;;;;;21.50;3.92;;;10.50;99.90;;;;;;5066135;28;20143;-48
2023/12/28 09:10:13;;;;;;;34.70;5.25;;;10.50;99.90;;;;;;5066359;28;20067;-50
2023/12/28 09:12:40;;;;;;;21.90;3.55;;;10.50;99.90;;;;;;5066354;28;20036;-49
2023/12/28 09:15:07;;;;;;;25.77;3.55;;;10.40;99.90;;;;;;5067162;28;20283;-48
2023/12/28 09:17:32;;;;;;;28.00;4.55;;;10.40;99.90;;;;;;5066363;28;20122;-50
2023/12/28 09:19:58;;;;;;;29.30;5.03;;;10.40;99.90;;;;;;5067210;28;20318;-50
2023/12/28 09:22:24;;;;;;;20.55;4.00;;;10.40;99.90;;;;;;5066712;28;20291;-51
2023/12/28 09:24:50;;;;;;;20.20;3.13;;;10.40;99.90;;;;;;5067061;28;20032;-50
2023/12/28 09:27:16;;;;;;;24.65;4.50;;;10.50;99.90;;;;;;5067130;28;20052;-49
2023/12/28 09:29:42;;;;;;;32.83;5.32;;;10.50;99.90;;;;;;5066809;28;20037;-51
2023/12/28 09:32:07;;;;;;;25.08;4.57;;;10.60;99.90;;;;;;5049408;28;20290;-50
2023/12/28 09:34:33;;;;;;;20.70;4.40;;;10.60;99.90;;;;;;5066967;28;20035;-50
2023/12/28 09:36:59;;;;;;;28.95;5.63;;;10.60;99.90;;;;;;5066692;28;20033;-50
2023/12/28 09:39:25;;;;;;;28.42;4.50;;;10.70;99.90;;;;;;5066365;28;20025;-51
2023/12/28 09:41:55;;;;;;;38.58;7.63;;;10.70;99.90;;;;;;5066645;28;20033;-50
2023/12/28 09:44:21;;;;;;;32.85;5.93;;;10.80;99.90;;;;;;5066287;28;20247;-51
2023/12/28 09:46:46;;;;;;;17.95;3.92;;;10.80;99.90;;;;;;5066615;28;20086;-48
2023/12/28 09:49:12;;;;;;;27.02;4.63;;;10.80;99.90;;;;;;5066532;28;20037;-49
2023/12/28 09:51:38;;;;;;;41.42;6.60;;;10.90;99.90;;;;;;5065540;28;20039;-50
2023/12/28 09:54:03;;;;;;;30.92;5.38;;;10.80;99.90;;;;;;5066153;28;20031;-51
2023/12/28 09:56:30;;;;;;;35.25;6.22;;;10.90;99.90;;;;;;5066466;28;20088;-51
2023/12/28 09:58:56;;;;;;;28.77;5.47;;;10.90;99.90;;;;;;5049037;28;20047;-50
2023/12/28 10:01:21;;;;;;;32.20;5.00;;;10.90;99.90;;;;;;5048687;28;20017;-51
2023/12/28 10:03:47;;;;;;;32.42;5.78;;;10.90;99.90;;;;;;5065375;28;20043;-48
2023/12/28 10:06:15;;;;;;;22.73;4.60;;;11.00;99.90;;;;;;5065333;28;20037;-48
2023/12/28 10:08:49;;;;;;;42.83;6.22;;;11.00;99.90;;;;;;5066029;28;20037;-48
2023/12/28 10:11:18;;;;;;;39.38;6.22;;;11.00;99.90;;;;;;5064964;28;20052;-48
2023/12/28 10:13:45;;;;;;;30.20;4.70;;;11.10;99.90;;;;;;5066099;28;20075;-50
2023/12/28 10:16:11;;;;;;;31.10;5.30;;;11.10;99.90;;;;;;5065012;28;20172;-47
2023/12/28 10:18:43;;;;;;;23.67;3.78;;;11.10;99.90;;;;;;5065525;28;20037;-50
2023/12/28 10:21:08;;;;;;;24.92;3.55;;;11.00;99.90;;;;;;5066201;28;20088;-49
2023/12/28 10:23:34;;;;;;;20.17;2.83;;;11.00;99.90;;;;;;5065857;28;20317;-48
2023/12/28 10:26:00;;;;;;;12.57;2.63;;;11.00;99.90;;;;;;5064603;28;20033;-51
2023/12/28 10:28:26;;;;;;;23.88;4.70;;;11.10;99.90;;;;;;5065895;28;20092;-51
2023/12/28 10:30:56;;;;;;;14.75;2.90;;;11.10;99.90;;;;;;5064908;28;20040;-51
2023/12/28 10:33:22;;;;;;;19.38;3.40;;;11.10;99.90;;;;;;5064759;28;20048;-50
2023/12/28 10:35:49;;;;;;;20.70;3.03;;;11.20;99.90;;;;;;5065714;28;20191;-51
2023/12/28 10:38:16;;;;;;;12.68;3.05;;;11.20;99.90;;;;;;5064672;28;20274;-50
2023/12/28 10:40:42;;;;;;;16.92;3.83;;;11.20;99.90;;;;;;5064642;28;20025;-50
2023/12/28 10:43:07;;;;;;;18.92;4.10;;;11.20;99.90;;;;;;5047679;28;20036;-51
2023/12/28 10:45:33;;;;;;;18.23;3.60;;;11.20;99.90;;;;;;5064467;28;20043;-51
2023/12/28 10:48:07;;;;;;;19.65;3.70;;;11.20;99.90;;;;;;5065427;28;20043;-50
2023/12/28 10:50:45;;;;;;;12.98;2.95;;;11.20;99.90;;;;;;5064484;28;20278;-49
2023/12/28 10:53:36;;;;;;;19.20;3.30;;;11.20;99.90;;;;;;5064254;28;20286;-51
2023/12/28 10:56:11;;;;;;;24.10;4.00;;;11.20;99.90;;;;;;5064989;28;20040;-51
2023/12/28 10:58:40;;;;;;;20.98;4.05;;;11.10;99.90;;;;;;5064689;28;20029;-51
2023/12/28 11:01:05;;;;;;;17.50;2.53;;;11.10;99.90;;;;;;5065132;28;20332;-49
2023/12/28 11:03:34;;;;;;;20.65;3.25;;;11.20;99.90;;;;;;5047797;28;20033;-49
2023/12/28 11:06:00;;;;;;;13.27;3.55;;;11.30;99.90;;;;;;5064269;28;20021;-51
2023/12/28 11:08:26;;;;;;;20.13;3.42;;;11.40;99.90;;;;;;5063749;28;20076;-49
2023/12/28 11:10:51;;;;;;;14.80;2.78;;;11.40;99.90;;;;;;5064284;28;20191;-50
2023/12/28 11:13:21;;;;;;;21.95;3.28;;;11.30;99.90;;;;;;5064246;28;20059;-48
2023/12/28 11:15:47;;;;;;;18.20;3.28;;;11.20;99.90;;;;;;5065283;28;20032;-50
2023/12/28 11:18:14;;;;;;;17.27;3.60;;;11.10;99.90;;;;;;5031131;28;20036;-50
2023/12/28 11:20:41;;;;;;;32.53;9.73;;;11.00;99.90;;;;;;5064964;28;20052;-49
2023/12/28 11:23:06;;;;;;;43.92;22.30;;;11.00;99.90;;;;;;5064932;28;20025;-49
2023/12/28 11:25:32;;;;;;;41.10;14.15;;;10.90;99.90;;;;;;5064963;28;20317;-50
2023/12/28 11:27:59;;;;;;;79.60;29.42;;;10.90;99.90;;;;;;5064715;28;20033;-51
2023/12/28 11:30:28;;;;;;;50.88;14.82;;;10.90;99.90;;;;;;5066239;28;20044;-50
2023/12/28 11:32:57;;;;;;;31.75;8.45;;;10.90;99.90;;;;;;5069328;28;20041;-50
2023/12/28 11:35:23;;;;;;;46.33;14.32;;;10.80;99.90;;;;;;5068869;28;20025;-50
2023/12/28 11:37:51;;;;;;;30.08;8.35;;;10.70;99.90;;;;;;5067792;28;20100;-51
2023/12/28 11:40:17;;;;;;;38.70;6.97;;;10.70;99.90;;;;;;5067889;28;20053;-48
2023/12/28 11:42:53;;;;;;;30.55;6.53;;;10.70;99.90;;;;;;5068845;28;20032;-51
2023/12/28 11:45:19;;;;;;;29.45;4.43;;;10.70;99.90;;;;;;5068634;28;20156;-50
2023/12/28 11:47:45;;;;;;;24.23;4.35;;;10.70;99.90;;;;;;5068930;28;20029;-50
2023/12/28 11:50:12;;;;;;;24.02;3.95;;;10.80;99.90;;;;;;5068805;28;20068;-52
2023/12/28 11:52:37;;;;;;;24.98;4.32;;;10.80;99.90;;;;;;5067680;28;20021;-50
2023/12/28 11:55:04;;;;;;;24.30;3.47;;;10.80;99.90;;;;;;5067365;28;20347;-50
2023/12/28 11:57:30;;;;;;;24.75;4.65;;;10.80;99.90;;;;;;5050928;28;20053;-51
2023/12/28 11:59:57;;;;;;;23.63;6.88;;;10.90;99.90;;;;;;5067215;28;20025;-50
2023/12/28 12:02:23;;;;;;;26.80;4.22;;;10.90;99.90;;;;;;5068511;28;20107;-50
2023/12/28 12:04:49;;;;;;;23.38;3.70;;;11.00;99.90;;;;;;5068506;28;20028;-50
2023/12/28 12:07:15;;;;;;;13.90;2.58;;;11.00;99.90;;;;;;5068346;28;20029;-51
2023/12/28 12:09:41;;;;;;;15.32;2.45;;;10.90;99.90;;;;;;5067036;28;20116;-51
2023/12/28 12:12:07;;;;;;;11.90;2.58;;;11.00;99.90;;;;;;5067320;28;20025;-51
2023/12/28 12:14:32;;;;;;;14.85;2.83;;;12.00;99.90;;;;;;5068439;28;20213;-51
2023/12/28 12:16:58;;;;;;;15.65;3.00;;;12.70;99.90;;;;;;5068122;28;20206;-51
2023/12/28 12:19:25;;;;;;;20.75;3.63;;;13.40;99.90;;;;;;5068327;28;20029;-50
2023/12/28 12:21:52;;;;;;;14.95;2.58;;;13.00;99.90;;;;;;5068180;28;20021;-51
2023/12/28 12:24:18;;;;;;;19.88;4.35;;;13.10;99.90;;;;;;5068204;28;20164;-48
2023/12/28 12:26:45;;;;;;;21.20;3.90;;;12.50;99.90;;;;;;5067205;28;20029;-50
2023/12/28 12:29:11;;;;;;;19.52;3.28;;;12.30;99.90;;;;;;5068291;28;20047;-51
2023/12/28 12:31:38;;;;;;;21.42;3.22;;;13.00;99.90;;;;;;5067685;28;20029;-48
2023/12/28 12:34:03;;;;;;;13.18;2.90;;;14.00;99.90;;;;;;5066975;28;20033;-50
2023/12/28 12:36:29;;;;;;;12.02;2.90;;;13.80;99.90;;;;;;5050472;28;20103;-51